Lebanon, OR

4:17 AM PDT on October 23, 2014 (GMT -0700)
Near Downtown - Grant | Change Station
CLOSE
Current Station
Personal Weather Station
Location: Lebanon, OR
Elevation: 354 ft
Nearby Weather Stations
Active Advisory: Special Statement Active Notice: Record Report

Elev 354 ft 44.54 °N, 122.90 °W | Updated 4 seconds ago

Overcast
Overcast
56.1 °F
Feels Like 56.1 °F
N
3.8
Wind Variable Wind from West
Gusts 3.8 mph

Today
High -- | Low -- °F
--% Chance of Precip.
Yesterday
High -- | Low -- °F
Precip. -- in
7:37 AM 6:13 PM
Waning Crescent, 0% visible
Pressure 29.78 in
Visibility 10.0 miles
Clouds Scattered Clouds 3300 ft
Mostly Cloudy 3900 ft
Overcast 6000 ft
Dew Point 56 °F
Humidity 99%
Rainfall 0.00 in
Snow Depth Not available.
UV 0 out of 12
Pollen .30 out of 12
PM2.5 Good
Flu Activity Sporadic
METAR KCVO 231055Z AUTO 21003KT 10SM SCT033 BKN039 OVC060 14/12 A2978 RMK AO1

More Conditions Fewer Conditions

Pressure 29.78 in
Visibility 10.0 miles
Clouds Scattered Clouds 3300 ft
Mostly Cloudy 3900 ft
Overcast 6000 ft
Dew Point 56 °F
Humidity 99%
Rainfall 0.00 in
Snow Depth Not available.
UV 0 out of 12
Pollen .30 out of 12
PM2.5 Good
Flu Activity Sporadic
METAR KCVO 231055Z AUTO 21003KT 10SM SCT033 BKN039 OVC060 14/12 A2978 RMK AO1

More Conditions Fewer Conditions

10-Day Weather Forecast

Almanac

Astronomy

Oct. 23, 2014 Rise Set
Actual Time 7:37 AM PDT 6:13 PM PDT
Civil Twilight 7:07 AM PDT 6:43 PM PDT
Nautical Twilight 6:33 AM PDT 7:17 PM PDT
Astronomical Twilight 5:59 AM PDT 7:51 PM PDT
Moon 7:21 AM PDT 6:18 PM PDT
Length of Visible Light 11h 36m
Length of Day
10h 36m
Tomorrow will be 2m 53s shorter.
Waning Crescent, 0% of the Moon is Illuminated
Today
Waning Crescent
Oct 23
New
Oct 30
First Quarter
Nov 6
Full
Nov 14
Last Quarter

Today's Extremes

State Highs State Lows

Community

WunderPhotos

Upload Photos

1,764,204 photos uploaded!

Nearby

Air Quality

  Air Quality AQ Index Pollutant
Yesterday Good
PM2.5
Current Good
PM2.5
Thursday Good
PM2.5

Snow Depth

Station Depth Elevation
Little Meadows 0 in 4000 ft
Jump Off Joe 0 in 3500 ft
Daly Lake 0 in 3600 ft
Marion Forks 0 in 2600 ft
Santiam Junction 0 in 3750 ft

Earthquake Activity

City Distance Mag. Time & Date
No recent earthquake activity has been reported nearby.
Minimum magnitude displayed is 2.5.

Coastal Water Temperatures

Place Temperature
No Stations Reporting

Nearby Weather Stations